Time;durP1;ratioP1;P1;durP2;ratioP2;P2;SDS_P1;SDS_P2;PMS_P1;PMS_P2;Temp;Humidity;BMP_temperature;BMP_pressure;BME280_temperature;BME280_humidity;BME280_pressure;Samples;Min_cycle;Max_cycle;Signal;HPM_P1;HPM_P2
2023/09/21 00:01:22;;;;;;;2.40;2.30;;;26.30;51.40;;;;;;6215836;23;20385;-78
2023/09/21 00:03:50;;;;;;;2.10;1.87;;;26.30;51.40;;;;;;6216236;23;20382;-78
2023/09/21 00:06:19;;;;;;;2.40;2.10;;;26.30;51.40;;;;;;6216596;23;20879;-78
2023/09/21 00:08:49;;;;;;;2.23;2.03;;;26.30;51.40;;;;;;6215258;23;20385;-78
2023/09/21 00:11:20;;;;;;;3.20;2.30;;;26.30;51.40;;;;;;6216297;23;20409;-78
2023/09/21 00:13:50;;;;;;;3.43;2.53;;;26.30;51.40;;;;;;6215339;23;20411;-77
2023/09/21 00:16:20;;;;;;;2.73;2.53;;;26.30;51.30;;;;;;6216744;23;20405;-78
2023/09/21 00:18:50;;;;;;;2.47;2.27;;;26.20;51.20;;;;;;6215932;23;20382;-78
2023/09/21 00:21:19;;;;;;;2.13;2.00;;;26.20;51.20;;;;;;6216866;23;20445;-78
2023/09/21 00:23:48;;;;;;;3.70;2.33;;;26.20;51.30;;;;;;6216621;23;20382;-78
2023/09/21 00:26:21;;;;;;;2.27;1.90;;;26.20;51.30;;;;;;6216725;23;20388;-78
2023/09/21 00:28:51;;;;;;;2.30;2.10;;;26.20;51.30;;;;;;6216979;23;20479;-77
2023/09/21 00:31:19;;;;;;;3.17;2.23;;;26.20;51.30;;;;;;6218556;23;20444;-76
2023/09/21 00:33:48;;;;;;;2.07;1.97;;;26.20;51.30;;;;;;6218120;23;20433;-77
2023/09/21 00:36:17;;;;;;;2.73;2.53;;;26.20;51.20;;;;;;6219670;23;20381;-77
2023/09/21 00:38:47;;;;;;;2.03;1.83;;;26.20;51.20;;;;;;6218868;23;20381;-78
2023/09/21 00:41:17;;;;;;;2.27;2.17;;;26.20;51.10;;;;;;6218637;23;20441;-78
2023/09/21 00:43:51;;;;;;;1.97;1.87;;;26.20;51.20;;;;;;6218375;23;20409;-78
2023/09/21 00:46:22;;;;;;;2.20;1.90;;;26.20;51.30;;;;;;6218493;23;20461;-78
2023/09/21 00:48:50;;;;;;;2.57;2.27;;;26.20;51.30;;;;;;6220606;23;20377;-78
2023/09/21 00:51:19;;;;;;;2.30;2.20;;;26.20;51.40;;;;;;6218923;23;20407;-78
2023/09/21 00:53:48;;;;;;;2.10;2.00;;;26.20;51.30;;;;;;6219693;23;20407;-77
2023/09/21 00:56:18;;;;;;;2.20;2.00;;;26.20;51.30;;;;;;6220220;23;20769;-78
2023/09/21 00:58:50;;;;;;;2.50;2.30;;;26.10;51.30;;;;;;6219044;23;20381;-79
2023/09/21 01:01:21;;;;;;;2.60;2.10;;;26.20;51.30;;;;;;6218834;23;20403;-77
2023/09/21 01:03:53;;;;;;;2.60;2.17;;;26.10;51.10;;;;;;6217906;23;20431;-78
2023/09/21 01:06:24;;;;;;;5.23;2.13;;;26.10;51.40;;;;;;6218076;23;20389;-78
2023/09/21 01:08:54;;;;;;;2.03;1.93;;;26.10;51.40;;;;;;6216688;23;20422;-77
2023/09/21 01:11:23;;;;;;;2.30;2.10;;;26.10;51.30;;;;;;6218805;23;20412;-77
2023/09/21 01:13:53;;;;;;;1.87;1.77;;;26.00;51.30;;;;;;6220389;23;20407;-76
2023/09/21 01:16:24;;;;;;;2.57;2.27;;;26.10;51.20;;;;;;6220500;23;20389;-78
2023/09/21 01:18:52;;;;;;;1.90;1.80;;;26.00;51.10;;;;;;6219019;23;20374;-78
2023/09/21 01:21:27;;;;;;;2.10;1.93;;;26.00;51.20;;;;;;6219390;23;20396;-78
2023/09/21 01:23:57;;;;;;;3.50;2.00;;;26.00;51.20;;;;;;6217603;23;20384;-78
2023/09/21 01:26:25;;;;;;;3.50;2.00;;;26.00;51.30;;;;;;6218766;23;20461;-78
2023/09/21 01:28:56;;;;;;;2.10;1.90;;;26.00;51.30;;;;;;6218234;23;20386;-78
2023/09/21 01:31:25;;;;;;;2.30;2.10;;;26.00;51.20;;;;;;6217531;23;20403;-77
2023/09/21 01:33:54;;;;;;;1.90;1.80;;;26.00;51.20;;;;;;6215713;23;20407;-77
2023/09/21 01:36:23;;;;;;;3.83;2.20;;;26.00;51.50;;;;;;6218937;23;20407;-77
2023/09/21 01:38:52;;;;;;;2.23;2.00;;;26.00;51.40;;;;;;6220993;23;20407;-77
2023/09/21 01:41:22;;;;;;;2.10;1.70;;;25.90;51.20;;;;;;6220127;23;20407;-77
2023/09/21 01:43:51;;;;;;;2.13;2.03;;;26.00;51.30;;;;;;6219937;23;20382;-77
2023/09/21 01:46:22;;;;;;;2.90;2.50;;;25.90;51.20;;;;;;6219186;23;20381;-78
2023/09/21 01:48:51;;;;;;;2.60;2.13;;;25.90;51.20;;;;;;6220861;23;20388;-75
2023/09/21 01:51:20;;;;;;;1.70;1.60;;;25.90;51.20;;;;;;6220121;23;20382;-77
2023/09/21 01:53:49;;;;;;;3.60;1.97;;;25.90;51.10;;;;;;6220167;23;20413;-77
2023/09/21 01:56:18;;;;;;;2.07;1.97;;;25.90;51.20;;;;;;6220179;23;20431;-77
2023/09/21 01:58:49;;;;;;;2.03;1.83;;;25.90;51.30;;;;;;6220700;23;20407;-77
2023/09/21 02:01:18;;;;;;;2.20;2.10;;;25.90;51.30;;;;;;6222204;23;20429;-78
2023/09/21 02:03:49;;;;;;;2.13;2.00;;;25.90;51.60;;;;;;6223665;23;20414;-78
2023/09/21 02:06:16;;;;;;;2.10;2.00;;;25.90;51.30;;;;;;6222087;23;20389;-78
2023/09/21 02:08:45;;;;;;;2.43;2.07;;;25.90;51.20;;;;;;6218652;23;20382;-77
2023/09/21 02:11:14;;;;;;;2.03;1.93;;;25.90;51.20;;;;;;6219270;23;20388;-78
2023/09/21 02:13:42;;;;;;;2.20;2.10;;;25.90;51.20;;;;;;6215205;23;20420;-78
2023/09/21 02:16:14;;;;;;;2.00;1.90;;;25.90;51.20;;;;;;6214589;23;20392;-78
2023/09/21 02:18:43;;;;;;;1.63;1.53;;;25.80;51.20;;;;;;6215256;23;20411;-77
2023/09/21 02:21:17;;;;;;;3.73;2.20;;;25.80;51.10;;;;;;6215168;23;20381;-78
2023/09/21 02:23:46;;;;;;;3.27;2.17;;;25.80;51.10;;;;;;6216558;23;20407;-78
2023/09/21 02:26:15;;;;;;;2.57;2.37;;;25.80;51.10;;;;;;6216182;23;20381;-78
2023/09/21 02:28:43;;;;;;;3.70;2.27;;;25.80;51.20;;;;;;6216053;23;20388;-78
2023/09/21 02:31:16;;;;;;;2.50;2.30;;;25.80;51.10;;;;;;6216352;23;20388;-78
2023/09/21 02:33:44;;;;;;;2.60;2.40;;;25.80;51.00;;;;;;6215161;23;20431;-77
2023/09/21 02:36:14;;;;;;;2.93;2.73;;;25.80;51.10;;;;;;6215682;23;20461;-77
2023/09/21 02:38:43;;;;;;;3.57;2.40;;;25.80;51.10;;;;;;6215979;23;20418;-77
2023/09/21 02:41:11;;;;;;;2.73;2.50;;;25.80;51.10;;;;;;6216494;23;20382;-77
2023/09/21 02:43:41;;;;;;;2.80;2.60;;;25.70;51.10;;;;;;6217085;23;20518;-78
2023/09/21 02:46:09;;;;;;;2.90;2.60;;;25.70;51.10;;;;;;6216735;23;20382;-78
2023/09/21 02:48:40;;;;;;;2.73;2.53;;;25.70;51.00;;;;;;6216644;23;20407;-76
2023/09/21 02:51:09;;;;;;;2.70;2.50;;;25.70;51.10;;;;;;6216546;23;20407;-78
2023/09/21 02:53:38;;;;;;;2.87;2.57;;;25.70;51.20;;;;;;6215452;23;20409;-77
2023/09/21 02:56:08;;;;;;;3.20;3.00;;;25.70;51.10;;;;;;6215886;23;20423;-78
2023/09/21 02:58:39;;;;;;;3.33;3.03;;;25.70;51.00;;;;;;6216883;23;20382;-78
2023/09/21 03:01:08;;;;;;;4.20;2.40;;;25.70;51.10;;;;;;6216748;23;20407;-78
2023/09/21 03:03:36;;;;;;;2.70;2.50;;;25.70;51.00;;;;;;6216037;23;20446;-78
2023/09/21 03:06:06;;;;;;;3.10;2.87;;;25.70;51.10;;;;;;6215773;23;20445;-78
2023/09/21 03:08:36;;;;;;;2.53;2.40;;;25.70;51.00;;;;;;6215709;23;20414;-78
2023/09/21 03:11:10;;;;;;;3.30;3.00;;;25.60;51.00;;;;;;6220754;23;20699;-79
2023/09/21 03:13:39;;;;;;;3.10;2.80;;;25.70;51.00;;;;;;6221892;23;20431;-78
2023/09/21 03:16:10;;;;;;;2.70;2.60;;;25.60;51.00;;;;;;6218371;23;20946;-77
2023/09/21 03:18:38;;;;;;;7.67;2.97;;;25.60;51.10;;;;;;6214593;23;20406;-78
2023/09/21 03:21:15;;;;;;;2.70;2.50;;;25.60;51.10;;;;;;6215135;23;20378;-78
2023/09/21 03:23:45;;;;;;;2.20;2.10;;;25.60;51.00;;;;;;6214712;23;20406;-76
2023/09/21 03:26:14;;;;;;;2.70;2.60;;;25.60;51.10;;;;;;6215239;23;20382;-78
2023/09/21 03:28:42;;;;;;;2.67;2.47;;;25.60;51.20;;;;;;6216173;23;20422;-78
2023/09/21 03:31:16;;;;;;;3.17;2.97;;;25.60;51.00;;;;;;6217951;23;20388;-78
2023/09/21 03:33:46;;;;;;;2.67;2.47;;;25.60;51.10;;;;;;6216767;23;20461;-78
2023/09/21 03:36:17;;;;;;;2.80;2.60;;;25.60;51.10;;;;;;6217346;23;20422;-78
2023/09/21 03:38:49;;;;;;;2.73;2.50;;;25.60;51.00;;;;;;6219366;23;20404;-78
2023/09/21 03:41:18;;;;;;;2.20;2.10;;;25.50;50.80;;;;;;6220645;23;20403;-78
2023/09/21 03:43:47;;;;;;;2.33;2.23;;;25.50;51.00;;;;;;6219232;23;20381;-78
2023/09/21 03:46:15;;;;;;;3.10;2.90;;;25.50;51.00;;;;;;6221078;23;20406;-79
2023/09/21 03:48:43;;;;;;;2.87;2.67;;;25.50;51.00;;;;;;6220241;23;20419;-79
2023/09/21 03:51:13;;;;;;;4.50;2.67;;;25.50;50.90;;;;;;6217521;23;20409;-78
2023/09/21 03:53:42;;;;;;;2.93;2.20;;;25.50;51.00;;;;;;6218368;23;20488;-77
2023/09/21 03:56:11;;;;;;;2.40;2.00;;;25.50;50.90;;;;;;6218676;23;20409;-78
2023/09/21 03:58:40;;;;;;;2.60;2.50;;;25.40;51.10;;;;;;6218119;23;20410;-78
2023/09/21 04:01:09;;;;;;;2.23;2.13;;;25.50;51.00;;;;;;6217879;23;20407;-78
2023/09/21 04:03:43;;;;;;;2.40;2.30;;;25.40;51.00;;;;;;6217088;23;20403;-79
2023/09/21 04:06:11;;;;;;;2.73;2.43;;;25.50;51.00;;;;;;6216294;23;20389;-79
2023/09/21 04:08:42;;;;;;;2.67;2.57;;;25.40;51.10;;;;;;6218668;23;20407;-79
2023/09/21 04:11:10;;;;;;;3.03;2.43;;;25.40;51.10;;;;;;6217253;23;20461;-79
2023/09/21 04:13:42;;;;;;;2.33;2.17;;;25.40;51.00;;;;;;6217643;23;20420;-79
2023/09/21 04:16:10;;;;;;;2.20;2.10;;;25.40;51.10;;;;;;6218118;23;20443;-79
2023/09/21 04:18:38;;;;;;;2.63;2.53;;;25.40;51.00;;;;;;6217607;23;20431;-79
2023/09/21 04:21:14;;;;;;;2.97;2.77;;;25.40;51.20;;;;;;6219042;23;20422;-79
2023/09/21 04:24:03;;;;;;;2.50;2.30;;;25.40;51.10;;;;;;6216214;23;20392;-79
2023/09/21 04:26:40;;;;;;;2.60;2.40;;;25.40;51.10;;;;;;6219243;23;20426;-80
2023/09/21 04:29:16;;;;;;;2.70;2.50;;;25.40;50.90;;;;;;6218834;23;20486;-79
2023/09/21 04:32:07;;;;;;;2.53;2.33;;;25.40;51.10;;;;;;6219724;23;20374;-79
2023/09/21 04:34:41;;;;;;;2.50;2.40;;;25.40;51.10;;;;;;6217456;23;20442;-79
2023/09/21 04:37:19;;;;;;;2.60;2.40;;;25.40;51.00;;;;;;6218994;23;20382;-77
2023/09/21 04:39:59;;;;;;;2.70;2.17;;;25.40;51.10;;;;;;6217167;23;20416;-79
2023/09/21 04:45:14;;;;;;;2.27;2.17;;;25.30;51.10;;;;;;6214932;23;20419;-76
2023/09/21 04:47:47;;;;;;;2.07;1.80;;;25.30;51.20;;;;;;6215957;23;20483;-78
2023/09/21 04:50:25;;;;;;;2.10;2.00;;;25.40;51.00;;;;;;6216710;23;20405;-77
2023/09/21 04:52:53;;;;;;;2.20;2.10;;;25.30;51.10;;;;;;6215520;23;20807;-78
2023/09/21 04:55:23;;;;;;;2.13;2.03;;;25.30;51.10;;;;;;6216274;23;20439;-78
2023/09/21 04:57:52;;;;;;;4.27;2.07;;;25.30;51.20;;;;;;6216499;23;20437;-78
2023/09/21 05:00:20;;;;;;;3.00;2.27;;;25.30;51.20;;;;;;6216197;23;20406;-77
2023/09/21 05:02:49;;;;;;;2.93;2.00;;;25.30;51.20;;;;;;6215583;23;20386;-78
2023/09/21 05:05:18;;;;;;;1.90;1.80;;;25.30;51.10;;;;;;6196726;23;20482;-78
2023/09/21 05:07:46;;;;;;;2.30;2.20;;;25.30;51.00;;;;;;6180116;23;20427;-77
2023/09/21 05:10:16;;;;;;;2.23;2.03;;;25.30;51.00;;;;;;6185331;23;20482;-78
2023/09/21 05:12:51;;;;;;;1.83;1.70;;;25.30;51.00;;;;;;6187406;23;20379;-78
2023/09/21 05:15:22;;;;;;;2.60;2.33;;;25.30;51.10;;;;;;6187262;23;20439;-78
2023/09/21 05:17:50;;;;;;;2.30;2.10;;;25.30;50.90;;;;;;6189592;23;20387;-78
2023/09/21 05:20:22;;;;;;;2.63;2.30;;;25.30;50.90;;;;;;6188985;23;20408;-78
2023/09/21 05:22:53;;;;;;;2.50;2.30;;;25.30;51.00;;;;;;6188137;23;20420;-78
2023/09/21 05:25:24;;;;;;;1.87;1.77;;;25.30;50.90;;;;;;6190791;23;20424;-79
2023/09/21 05:28:04;;;;;;;2.13;2.03;;;25.30;50.90;;;;;;6198121;23;20408;-79
2023/09/21 05:30:35;;;;;;;2.20;2.07;;;25.30;50.90;;;;;;6194237;23;20382;-79
2023/09/21 05:33:13;;;;;;;2.80;2.40;;;25.30;50.80;;;;;;6196843;23;20424;-79
2023/09/21 05:35:51;;;;;;;1.90;1.80;;;25.30;50.80;;;;;;6197385;23;20459;-79
2023/09/21 05:38:22;;;;;;;4.30;2.20;;;25.30;50.80;;;;;;6198729;23;20407;-79
2023/09/21 05:40:51;;;;;;;1.83;1.73;;;25.30;50.80;;;;;;6199870;23;20408;-79
2023/09/21 05:43:23;;;;;;;2.60;2.07;;;25.30;50.80;;;;;;6200269;23;20408;-79
2023/09/21 05:45:51;;;;;;;2.10;2.00;;;25.40;50.70;;;;;;6199852;23;20455;-79
2023/09/21 05:48:22;;;;;;;4.60;2.20;;;25.30;50.60;;;;;;6200822;23;20442;-79
2023/09/21 05:50:51;;;;;;;2.07;1.97;;;25.40;50.80;;;;;;6198237;23;20408;-78
2023/09/21 05:53:20;;;;;;;1.93;1.83;;;25.40;50.80;;;;;;6193118;23;20382;-78
2023/09/21 05:55:48;;;;;;;1.97;1.87;;;25.40;50.60;;;;;;6195976;23;20463;-78
2023/09/21 05:58:19;;;;;;;2.40;2.30;;;25.40;50.80;;;;;;6195216;23;20519;-79
2023/09/21 06:00:52;;;;;;;2.40;2.30;;;25.40;50.60;;;;;;6198413;23;20429;-79
2023/09/21 06:03:26;;;;;;;2.43;2.23;;;25.40;50.60;;;;;;6204432;23;20463;-78
2023/09/21 06:05:55;;;;;;;2.20;2.00;;;25.40;50.40;;;;;;6202162;23;20459;-78
2023/09/21 06:08:23;;;;;;;7.30;2.00;;;25.40;50.40;;;;;;6192716;23;20463;-79
2023/09/21 06:10:52;;;;;;;2.50;2.20;;;25.40;50.60;;;;;;6198931;23;20408;-79
2023/09/21 06:13:20;;;;;;;2.33;2.13;;;25.40;50.60;;;;;;6191038;23;20390;-77
2023/09/21 06:15:50;;;;;;;2.97;2.10;;;25.40;50.40;;;;;;6189645;23;20469;-79
2023/09/21 06:18:19;;;;;;;2.27;2.07;;;25.50;50.50;;;;;;6187598;23;20410;-77
2023/09/21 06:20:48;;;;;;;1.97;1.87;;;25.50;50.40;;;;;;6185557;23;20465;-76
2023/09/21 06:23:18;;;;;;;2.17;1.90;;;25.50;50.20;;;;;;6187446;23;20390;-77
2023/09/21 06:25:48;;;;;;;2.03;1.80;;;25.50;50.40;;;;;;6187832;23;20431;-77
2023/09/21 06:28:17;;;;;;;5.50;1.90;;;25.50;50.30;;;;;;6189120;23;20371;-77
2023/09/21 06:30:51;;;;;;;2.03;1.93;;;25.60;50.40;;;;;;6189275;23;20376;-78
2023/09/21 06:33:23;;;;;;;2.90;1.90;;;25.60;50.30;;;;;;6189221;23;20436;-78
2023/09/21 06:35:55;;;;;;;2.20;2.00;;;25.70;50.40;;;;;;6189734;23;20460;-78
2023/09/21 06:38:28;;;;;;;2.67;2.07;;;25.70;50.20;;;;;;6190860;23;20383;-78
2023/09/21 06:40:57;;;;;;;2.40;2.20;;;25.70;50.10;;;;;;6190026;23;20382;-78
2023/09/21 06:43:30;;;;;;;3.20;2.07;;;25.70;50.10;;;;;;6191212;23;20382;-78
2023/09/21 06:46:03;;;;;;;2.40;2.20;;;25.70;50.00;;;;;;6190972;23;20498;-77
2023/09/21 06:48:32;;;;;;;4.60;2.50;;;25.70;50.00;;;;;;6187515;23;20406;-77
2023/09/21 06:51:01;;;;;;;2.10;2.00;;;25.70;50.00;;;;;;6186933;23;20383;-78
2023/09/21 06:53:29;;;;;;;2.83;2.20;;;25.70;50.20;;;;;;6188184;23;20390;-78
2023/09/21 06:55:58;;;;;;;2.20;2.00;;;25.80;50.00;;;;;;6188133;23;20414;-78
2023/09/21 06:58:30;;;;;;;1.97;1.87;;;25.90;49.90;;;;;;6188024;23;20392;-78
2023/09/21 07:00:59;;;;;;;2.20;2.00;;;25.90;49.80;;;;;;6187383;23;20382;-78
2023/09/21 07:03:33;;;;;;;2.00;1.73;;;25.90;49.60;;;;;;6187825;23;20408;-78
2023/09/21 07:06:02;;;;;;;3.27;1.90;;;25.90;49.80;;;;;;6188444;23;20416;-77
2023/09/21 07:08:31;;;;;;;3.60;2.00;;;25.90;49.80;;;;;;6190679;23;20412;-78
2023/09/21 07:10:59;;;;;;;2.20;2.10;;;26.00;49.80;;;;;;6194016;23;20448;-77
2023/09/21 07:13:29;;;;;;;2.17;1.97;;;26.10;49.60;;;;;;6189476;23;20383;-77
2023/09/21 07:16:01;;;;;;;2.30;2.10;;;26.10;49.60;;;;;;6184770;23;20474;-79
2023/09/21 07:18:31;;;;;;;2.50;1.80;;;26.20;49.50;;;;;;6185040;23;20501;-75
2023/09/21 07:21:00;;;;;;;1.90;1.80;;;26.20;49.60;;;;;;6185281;23;20383;-77
2023/09/21 07:23:28;;;;;;;2.80;1.77;;;26.30;49.70;;;;;;6186473;23;20405;-77
2023/09/21 07:25:58;;;;;;;2.10;2.00;;;26.20;49.30;;;;;;6187953;23;20453;-78
2023/09/21 07:28:30;;;;;;;2.30;2.10;;;26.20;49.60;;;;;;6189826;23;20374;-77
2023/09/21 07:31:02;;;;;;;2.50;2.30;;;26.30;49.50;;;;;;6185151;23;20379;-77
2023/09/21 07:33:33;;;;;;;2.03;1.87;;;26.30;49.50;;;;;;6187506;23;20375;-78
2023/09/21 07:36:08;;;;;;;2.27;2.07;;;26.30;49.50;;;;;;6187753;23;20467;-78
2023/09/21 07:38:42;;;;;;;3.97;2.30;;;26.30;49.40;;;;;;6183637;23;20407;-77
2023/09/21 07:41:15;;;;;;;3.57;1.90;;;26.40;49.60;;;;;;6185088;23;20461;-77
2023/09/21 07:43:48;;;;;;;2.27;2.07;;;26.40;49.50;;;;;;6184783;23;20425;-77
2023/09/21 07:46:30;;;;;;;2.30;2.20;;;26.50;49.50;;;;;;6184920;23;20481;-78
2023/09/21 07:49:50;;;;;;;5.23;2.00;;;26.50;49.40;;;;;;6189435;23;20404;-78
2023/09/21 07:52:18;;;;;;;1.93;1.83;;;26.50;49.50;;;;;;6185153;23;20435;-78
2023/09/21 07:54:49;;;;;;;4.93;1.80;;;26.60;49.40;;;;;;6184579;23;20511;-77
2023/09/21 07:57:18;;;;;;;2.30;2.10;;;26.60;49.50;;;;;;6185156;23;20369;-77
2023/09/21 07:59:49;;;;;;;2.10;1.90;;;26.70;49.50;;;;;;6186973;23;20402;-78
2023/09/21 08:02:21;;;;;;;2.20;1.80;;;26.80;49.30;;;;;;6185252;23;20405;-78
2023/09/21 08:04:54;;;;;;;3.03;1.93;;;26.80;49.40;;;;;;6188790;23;20975;-79
2023/09/21 08:07:26;;;;;;;4.80;1.73;;;26.90;49.40;;;;;;6188258;23;20375;-77
2023/09/21 08:09:55;;;;;;;2.03;1.83;;;27.00;49.50;;;;;;6185712;23;20375;-77
2023/09/21 08:12:25;;;;;;;1.73;1.63;;;27.20;49.40;;;;;;6187368;23;20398;-78
2023/09/21 08:14:54;;;;;;;3.53;1.97;;;27.30;49.20;;;;;;6186396;23;20481;-76
2023/09/21 08:17:30;;;;;;;2.67;2.10;;;27.50;49.20;;;;;;6187022;23;20436;-77
2023/09/21 08:20:25;;;;;;;1.93;1.83;;;27.60;49.00;;;;;;6189684;23;20470;-78
2023/09/21 08:23:06;;;;;;;2.60;2.10;;;27.70;49.00;;;;;;6189606;23;20394;-79
2023/09/21 08:25:50;;;;;;;2.10;2.00;;;27.80;48.90;;;;;;6190885;23;20773;-79
2023/09/21 08:28:25;;;;;;;4.53;1.93;;;27.80;48.70;;;;;;6158827;23;20373;-78
2023/09/21 08:30:57;;;;;;;2.30;2.10;;;27.90;48.60;;;;;;6159527;23;20379;-76
2023/09/21 08:33:25;;;;;;;1.90;1.80;;;28.00;48.70;;;;;;6155426;23;20391;-78
2023/09/21 08:35:58;;;;;;;2.00;1.90;;;28.10;48.50;;;;;;6155831;23;20444;-78
2023/09/21 08:38:26;;;;;;;1.90;1.80;;;28.20;48.40;;;;;;6157419;23;20399;-77
2023/09/21 08:40:54;;;;;;;2.17;2.07;;;28.30;48.40;;;;;;6158891;23;20419;-78
2023/09/21 08:43:24;;;;;;;1.93;1.83;;;28.40;48.30;;;;;;6158787;23;20409;-79
2023/09/21 08:45:53;;;;;;;2.10;2.00;;;28.50;48.20;;;;;;6163635;23;20433;-79
2023/09/21 08:48:23;;;;;;;2.00;1.80;;;28.50;48.10;;;;;;6159284;23;20409;-77
2023/09/21 08:51:01;;;;;;;1.73;1.57;;;28.50;48.20;;;;;;6157932;23;20884;-78
2023/09/21 08:53:33;;;;;;;1.67;1.57;;;28.50;48.10;;;;;;6160421;23;20415;-80
2023/09/21 08:56:05;;;;;;;3.27;2.17;;;28.60;48.00;;;;;;6159370;23;20411;-78
2023/09/21 08:58:40;;;;;;;3.33;2.17;;;28.70;48.10;;;;;;6158992;23;20414;-78
2023/09/21 09:01:13;;;;;;;1.87;1.77;;;28.70;48.00;;;;;;6160951;23;20351;-78
2023/09/21 09:03:44;;;;;;;3.43;1.83;;;28.70;47.90;;;;;;6160296;23;20410;-78
2023/09/21 09:06:14;;;;;;;2.30;1.83;;;28.80;47.90;;;;;;6163654;23;20432;-79
2023/09/21 09:08:46;;;;;;;2.90;2.07;;;28.80;47.90;;;;;;6163245;23;20408;-78
2023/09/21 09:11:32;;;;;;;6.00;1.90;;;28.90;47.70;;;;;;6164342;23;20382;-78
2023/09/21 09:14:01;;;;;;;2.10;2.00;;;29.00;47.80;;;;;;6164609;23;20397;-78
2023/09/21 09:16:30;;;;;;;1.67;1.57;;;29.00;47.60;;;;;;6163082;23;20439;-77
2023/09/21 09:19:00;;;;;;;2.10;1.90;;;29.10;47.50;;;;;;6160225;23;20409;-79
2023/09/21 09:21:33;;;;;;;2.27;2.07;;;29.10;47.40;;;;;;6159447;23;20401;-79
2023/09/21 09:24:02;;;;;;;2.27;2.10;;;29.20;47.40;;;;;;6158874;23;20416;-78
2023/09/21 09:26:31;;;;;;;2.00;1.90;;;29.10;47.30;;;;;;6158523;23;20404;-78
2023/09/21 09:29:06;;;;;;;1.87;1.73;;;29.20;47.40;;;;;;6157547;23;20409;-78
2023/09/21 09:31:35;;;;;;;7.27;1.80;;;29.20;47.30;;;;;;6156156;23;20409;-77
2023/09/21 09:34:04;;;;;;;2.53;2.10;;;29.20;47.30;;;;;;6156302;23;20409;-78
2023/09/21 09:36:35;;;;;;;2.00;1.90;;;29.30;47.40;;;;;;6156785;23;20483;-78
2023/09/21 09:39:08;;;;;;;2.50;2.00;;;29.40;47.20;;;;;;6158416;23;20389;-77
2023/09/21 09:41:37;;;;;;;2.43;1.60;;;29.50;47.30;;;;;;6158766;23;20428;-77
2023/09/21 09:44:06;;;;;;;2.00;1.90;;;29.70;47.10;;;;;;6162302;23;20391;-77
2023/09/21 09:46:35;;;;;;;1.90;1.80;;;29.70;47.00;;;;;;6157140;23;20754;-76
2023/09/21 09:49:04;;;;;;;1.63;1.53;;;29.80;47.00;;;;;;6157718;23;20426;-78
2023/09/21 09:51:38;;;;;;;1.90;1.80;;;29.90;46.90;;;;;;6157558;23;20445;-77
2023/09/21 09:54:11;;;;;;;3.37;1.80;;;29.90;46.80;;;;;;6156427;23;20858;-77
2023/09/21 09:56:41;;;;;;;1.80;1.70;;;30.00;46.80;;;;;;6163039;23;20407;-78
2023/09/21 09:59:11;;;;;;;2.13;1.60;;;30.00;46.70;;;;;;6160192;23;20439;-77
2023/09/21 10:01:41;;;;;;;3.93;1.90;;;30.10;46.60;;;;;;6156089;23;20412;-78
2023/09/21 10:04:09;;;;;;;2.40;1.80;;;30.10;46.70;;;;;;6157791;23;20467;-79
2023/09/21 10:06:42;;;;;;;2.10;2.00;;;30.20;46.60;;;;;;6161987;23;20414;-79
2023/09/21 10:09:10;;;;;;;1.90;1.73;;;30.40;46.60;;;;;;6160478;23;20384;-78
2023/09/21 10:11:45;;;;;;;4.50;1.87;;;30.60;46.50;;;;;;6162068;23;20410;-78
2023/09/21 10:14:14;;;;;;;1.70;1.60;;;30.90;46.60;;;;;;6165358;23;20436;-80
2023/09/21 10:16:49;;;;;;;3.07;1.83;;;31.30;46.30;;;;;;6168003;23;20442;-79
2023/09/21 10:19:24;;;;;;;2.03;1.93;;;31.60;45.90;;;;;;6168594;23;20408;-79
2023/09/21 10:21:56;;;;;;;3.40;2.17;;;31.90;45.40;;;;;;6167658;23;20455;-78
2023/09/21 10:24:27;;;;;;;1.80;1.70;;;32.10;45.10;;;;;;6168329;23;20429;-79
2023/09/21 10:26:58;;;;;;;3.03;1.90;;;32.40;44.90;;;;;;6163649;23;20420;-78
2023/09/21 10:29:29;;;;;;;2.03;1.90;;;32.50;44.60;;;;;;6158626;23;20436;-78
2023/09/21 10:31:59;;;;;;;2.20;1.80;;;32.50;44.30;;;;;;6156918;23;20408;-78
2023/09/21 10:34:31;;;;;;;1.80;1.70;;;32.60;44.30;;;;;;6157343;23;20429;-77
2023/09/21 10:37:10;;;;;;;1.90;1.90;;;32.60;44.20;;;;;;6156872;23;20408;-77
2023/09/21 10:39:40;;;;;;;3.80;1.33;;;32.50;44.10;;;;;;6156620;23;20415;-78
2023/09/21 10:42:33;;;;;;;2.23;2.03;;;32.40;44.20;;;;;;6156999;23;20436;-78
2023/09/21 10:45:03;;;;;;;2.00;1.90;;;32.40;44.40;;;;;;6156592;23;20429;-78
2023/09/21 10:47:41;;;;;;;1.60;1.50;;;32.50;44.40;;;;;;6157119;23;20401;-78
2023/09/21 10:50:14;;;;;;;3.83;1.80;;;32.70;44.20;;;;;;6157226;23;20434;-78
2023/09/21 10:52:44;;;;;;;1.97;1.87;;;33.00;44.20;;;;;;6157137;23;20432;-78
2023/09/21 10:55:40;;;;;;;2.13;1.93;;;33.30;44.00;;;;;;6157497;23;20443;-79
2023/09/21 10:58:17;;;;;;;1.60;1.50;;;33.60;43.70;;;;;;6159145;23;20401;-78
2023/09/21 11:00:51;;;;;;;1.70;1.60;;;33.90;43.10;;;;;;6156184;23;20409;-77
2023/09/21 11:03:25;;;;;;;2.20;1.70;;;34.00;42.70;;;;;;6157158;23;20492;-78
2023/09/21 11:06:05;;;;;;;1.80;1.70;;;34.20;42.60;;;;;;6156397;23;20494;-77
2023/09/21 11:08:43;;;;;;;1.77;1.60;;;34.30;42.40;;;;;;6156052;23;20436;-77
2023/09/21 11:11:19;;;;;;;2.63;1.80;;;34.30;42.20;;;;;;6155789;23;20409;-77
2023/09/21 11:13:59;;;;;;;1.40;1.40;;;34.30;42.00;;;;;;6154942;23;20413;-77
2023/09/21 11:16:30;;;;;;;1.70;1.70;;;34.20;42.00;;;;;;6155040;23;20436;-77
2023/09/21 11:18:59;;;;;;;2.00;1.90;;;34.20;42.30;;;;;;6155633;23;20405;-77
2023/09/21 11:21:27;;;;;;;1.87;1.73;;;34.30;42.00;;;;;;6154669;23;20462;-77
2023/09/21 11:23:58;;;;;;;2.07;1.97;;;34.20;41.90;;;;;;6156456;23;20480;-76
2023/09/21 11:26:27;;;;;;;2.57;2.00;;;34.10;41.90;;;;;;6157533;23;20409;-78
2023/09/21 11:28:58;;;;;;;1.53;1.43;;;34.00;42.00;;;;;;6157578;23;20433;-78
2023/09/21 11:31:27;;;;;;;1.70;1.60;;;34.00;42.10;;;;;;6157638;23;20391;-78
2023/09/21 11:34:05;;;;;;;2.20;1.80;;;34.10;42.40;;;;;;6157394;23;20398;-78
2023/09/21 11:36:33;;;;;;;2.10;1.43;;;34.50;41.90;;;;;;6156944;23;20392;-78
2023/09/21 11:39:07;;;;;;;5.40;1.83;;;35.20;41.30;;;;;;6159549;23;20397;-79
2023/09/21 11:41:36;;;;;;;1.77;1.67;;;35.40;40.30;;;;;;6155620;23;20381;-77
2023/09/21 11:44:05;;;;;;;2.10;1.90;;;35.30;40.10;;;;;;6155321;23;20396;-77
2023/09/21 11:46:34;;;;;;;1.50;1.40;;;35.00;40.40;;;;;;6158920;23;20401;-77
2023/09/21 11:49:03;;;;;;;1.70;1.60;;;34.70;40.70;;;;;;6175291;23;20520;-75
2023/09/21 11:51:31;;;;;;;3.23;1.60;;;34.40;41.00;;;;;;6177012;23;20385;-76
2023/09/21 11:54:00;;;;;;;2.13;1.60;;;34.20;41.30;;;;;;6165159;23;20452;-76
2023/09/21 11:56:29;;;;;;;1.70;1.60;;;34.00;41.70;;;;;;6157879;23;20464;-75
2023/09/21 11:58:58;;;;;;;2.00;1.90;;;34.10;41.80;;;;;;6157419;23;20470;-78
2023/09/21 12:01:28;;;;;;;1.80;1.70;;;34.20;41.60;;;;;;6155519;23;20409;-77
2023/09/21 12:03:57;;;;;;;1.50;1.50;;;34.00;41.60;;;;;;6154601;23;20467;-79
2023/09/21 12:06:27;;;;;;;1.90;1.80;;;33.90;41.80;;;;;;6157185;23;20437;-78
2023/09/21 12:08:57;;;;;;;1.80;1.70;;;33.80;42.00;;;;;;6161900;23;20483;-80
2023/09/21 12:11:35;;;;;;;1.60;1.60;;;33.70;42.10;;;;;;6164298;23;20432;-78
2023/09/21 12:14:08;;;;;;;1.67;1.57;;;33.80;42.00;;;;;;6164065;23;20400;-79
2023/09/21 12:16:38;;;;;;;1.97;1.87;;;33.70;42.10;;;;;;6157879;23;20436;-79
2023/09/21 12:19:53;;;;;;;1.90;1.80;;;33.80;42.20;;;;;;6157233;23;20488;-78
2023/09/21 12:22:41;;;;;;;3.13;1.50;;;34.00;42.40;;;;;;6096371;23;20527;-79
2023/09/21 12:25:14;;;;;;;1.40;1.40;;;34.60;42.10;;;;;;6095239;23;20501;-76
2023/09/21 12:27:45;;;;;;;1.80;1.70;;;35.70;40.80;;;;;;6139669;23;20436;-77
2023/09/21 12:30:30;;;;;;;1.60;1.50;;;36.20;39.00;;;;;;6157996;23;20385;-78
2023/09/21 12:33:03;;;;;;;1.60;1.50;;;36.20;38.80;;;;;;6160711;23;20389;-79
2023/09/21 12:35:31;;;;;;;1.50;1.50;;;36.10;38.40;;;;;;6162199;23;20576;-78
2023/09/21 12:38:00;;;;;;;2.07;1.80;;;35.90;38.60;;;;;;6158986;23;20390;-78
2023/09/21 12:40:28;;;;;;;4.93;1.80;;;35.40;38.90;;;;;;6162067;23;20416;-79
2023/09/21 12:43:01;;;;;;;1.83;1.73;;;35.10;39.60;;;;;;6159741;23;20442;-79
2023/09/21 12:45:38;;;;;;;1.77;1.67;;;34.80;39.70;;;;;;6161475;23;20435;-78
2023/09/21 12:48:08;;;;;;;1.60;1.50;;;34.40;40.10;;;;;;6163526;23;20432;-77
2023/09/21 12:50:37;;;;;;;1.73;1.63;;;34.20;40.70;;;;;;6161573;23;20405;-78
2023/09/21 12:53:06;;;;;;;1.70;1.60;;;34.00;41.00;;;;;;6163220;23;20936;-79
2023/09/21 12:55:34;;;;;;;1.90;1.80;;;33.80;41.30;;;;;;6163681;23;20456;-80
2023/09/21 12:58:06;;;;;;;1.80;1.80;;;33.70;41.50;;;;;;6164510;23;20405;-79
2023/09/21 13:00:34;;;;;;;1.50;1.50;;;33.70;41.70;;;;;;6164419;23;20396;-79
2023/09/21 13:03:07;;;;;;;1.60;1.50;;;33.60;41.80;;;;;;6165407;23;20395;-78
2023/09/21 13:05:36;;;;;;;2.30;1.70;;;33.50;42.00;;;;;;6164995;23;20456;-78
2023/09/21 13:08:06;;;;;;;3.30;2.00;;;33.30;42.10;;;;;;6164621;23;20436;-78
2023/09/21 13:10:34;;;;;;;2.00;1.97;;;33.30;42.30;;;;;;6166034;23;20408;-79
2023/09/21 13:13:03;;;;;;;2.30;1.93;;;33.20;42.40;;;;;;6165657;23;20409;-80